Wind From: 11-12-2017 10:04 Until: 12-12-2017 06:00 warning for: Wind Level: Orange info button

Power and phone distribution networks may be disrupted for relatively long periods., Roofs and chimneys can be damaged. , Tree branches may break. , Vehicles can be deported. , Traffic may be disrupted, particularly on secondary roads in forest areas. Limit your trips. , Limit your speed in highway driving, especially if you drive a vehicle or hitch sensitive to wind. , Do not go for walks in forests or along the coast., In town, be vigilant against possible falling objects., Do not work on roofs and do not touch any electrical line fallen on the ground., Store or secure sensitive objects to wind or likely to be damaged., Always install power generators outside buildings. 


Meteo18 Weather Cam more information Meteo18 Weather Cam


Thunder radar more information blitzortung!


Rain radar more information rain snow radar


Visit our other weather sites:

Template documentation
and downloads

And another site



Weather Underground History page Text

Daily Summary for March 22, 2017 Units:  Both    English   Metric
« Previous Day
Next Day »
Daily Weekly Monthly Yearly Custom
  High: Low: Average:
Temperature: 55 °F /  12.8 °C 32.9 °F /  0.5 °C 44.1 °F /  6.7 °C
Dew Point: 43.3 °F /  6.3 °C 31.8 °F /  -0.1 °C 37.9 °F /  3.3 °C
Humidity: 97 % 55 % 81 %
Wind Speed: 11 mph /  17.7 km/h - 2.1 mph /  3.3 km/h
Wind Gust: 15 mph /  24.1 km/h - -
Wind:- - SE
Pressure: 30 in /  1016.1 hPa 29.8 in /  1008.4 hPa -
Precipitation: 0.01 in /  0.3 mm    
Historical Graphs
 
 
Tabular Data for March 22, 2017
Time Temperature Dew Point Pressure Wind Wind Speed Wind Gust Humidity Rainfall Rate (Hourly)
00:02 38.3 °F /  3.5 °C 37 °F /  2.8 °C 30 in /  1016.1 hPa Calm   2 mph /  3.2 km/h 95 % 0 in /  0.0 mm
00:12 38.1 °F /  3.4 °C 37 °F /  2.8 °C 30 in /  1016.1 hPa Calm     96 % 0 in /  0.0 mm
00:17 38.1 °F /  3.4 °C 37 °F /  2.8 °C 30 in /  1016.1 hPa SW 2 mph /  3.2 km/h   96 % 0 in /  0.0 mm
00:22 38.3 °F /  3.5 °C 37.2 °F /  2.9 °C 30 in /  1016.1 hPa WSW 2 mph /  3.2 km/h 3 mph /  4.8 km/h 96 % 0 in /  0.0 mm
00:32 38.5 °F /  3.6 °C 37.4 °F /  3.0 °C 30 in /  1016.1 hPa SW 2 mph /  3.2 km/h 3 mph /  4.8 km/h 96 % 0 in /  0.0 mm
00:37 38.3 °F /  3.5 °C 37.2 °F /  2.9 °C 30 in /  1016.1 hPa WSW 1 mph /  1.6 km/h 3 mph /  4.8 km/h 96 % 0 in /  0.0 mm
00:42 38.3 °F /  3.5 °C 37.2 °F /  2.9 °C 30 in /  1016.1 hPa SW 1 mph /  1.6 km/h 3 mph /  4.8 km/h 96 % 0 in /  0.0 mm
00:47 38.1 °F /  3.4 °C 37 °F /  2.8 °C 30 in /  1016.1 hPa Calm   2 mph /  3.2 km/h 96 % 0 in /  0.0 mm
00:52 37.9 °F /  3.3 °C 36.7 °F /  2.6 °C 30 in /  1016.1 hPa Calm   2 mph /  3.2 km/h 95 % 0 in /  0.0 mm
00:57 37.8 °F /  3.2 °C 36.5 °F /  2.5 °C 30 in /  1016.1 hPa Calm   2 mph /  3.2 km/h 95 % 0 in /  0.0 mm
01:02 37.6 °F /  3.1 °C 36.3 °F /  2.4 °C 30 in /  1016.1 hPa Calm   2 mph /  3.2 km/h 95 % 0 in /  0.0 mm
01:07 37.4 °F /  3.0 °C 36.1 °F /  2.3 °C 30 in /  1016.1 hPa Calm     95 % 0 in /  0.0 mm
01:17 37 °F /  2.8 °C 36 °F /  2.2 °C 30 in /  1015.8 hPa Calm     96 % 0.01 in /  0.3 mm
01:22 37 °F /  2.8 °C 36 °F /  2.2 °C 30 in /  1015.8 hPa Calm     96 % 0.01 in /  0.3 mm
01:32 37 °F /  2.8 °C 36 °F /  2.2 °C 30 in /  1016.1 hPa Calm     96 % 0.01 in /  0.3 mm
01:42 36.7 °F /  2.6 °C 35.6 °F /  2.0 °C 30 in /  1015.8 hPa Calm   1 mph /  1.6 km/h 96 % 0.01 in /  0.3 mm
01:52 36 °F /  2.2 °C 34.9 °F /  1.6 °C 30 in /  1015.8 hPa Calm   1 mph /  1.6 km/h 96 % 0.01 in /  0.3 mm
01:57 36 °F /  2.2 °C 34.9 °F /  1.6 °C 30 in /  1015.8 hPa SE 1 mph /  1.6 km/h 1 mph /  1.6 km/h 96 % 0.01 in /  0.3 mm
02:02 36.1 °F /  2.3 °C 35.1 °F /  1.7 °C 30 in /  1015.8 hPa Calm   1 mph /  1.6 km/h 96 % 0.01 in /  0.3 mm
02:07 36.1 °F /  2.3 °C 35.1 °F /  1.7 °C 30 in /  1015.8 hPa Calm   1 mph /  1.6 km/h 96 % 0.01 in /  0.3 mm
02:12 36 °F /  2.2 °C 34.9 °F /  1.6 °C 30 in /  1015.5 hPa Calm   1 mph /  1.6 km/h 96 % 0.01 in /  0.3 mm
02:17 35.8 °F /  2.1 °C 34.7 °F /  1.5 °C 30 in /  1015.5 hPa Calm     96 % 0 in /  0.0 mm
02:22 35.2 °F /  1.8 °C 34 °F /  1.1 °C 30 in /  1015.5 hPa Calm     95 % 0 in /  0.0 mm
02:27 35.1 °F /  1.7 °C 34 °F /  1.1 °C 30 in /  1015.5 hPa Calm     96 % 0 in /  0.0 mm
02:32 34.7 °F /  1.5 °C 33.6 °F /  0.9 °C 30 in /  1015.5 hPa Calm     96 % 0 in /  0.0 mm
02:37 34.5 °F /  1.4 °C 33.4 °F /  0.8 °C 30 in /  1015.1 hPa Calm     96 % 0 in /  0.0 mm
02:42 34.2 °F /  1.2 °C 33.1 °F /  0.6 °C 30 in /  1015.1 hPa Calm     96 % 0 in /  0.0 mm
02:47 34 °F /  1.1 °C 32.9 °F /  0.5 °C 30 in /  1015.1 hPa Calm     96 % 0 in /  0.0 mm
02:52 34 °F /  1.1 °C 32.9 °F /  0.5 °C 30 in /  1015.1 hPa Calm     96 % 0 in /  0.0 mm
02:57 33.6 °F /  0.9 °C 32.5 °F /  0.3 °C 30 in /  1014.8 hPa Calm     96 % 0 in /  0.0 mm
03:02 33.6 °F /  0.9 °C 32.5 °F /  0.3 °C 30 in /  1014.8 hPa Calm     96 % 0 in /  0.0 mm
03:12 34.3 °F /  1.3 °C 33.6 °F /  0.9 °C 30 in /  1014.8 hPa Calm     97 % 0 in /  0.0 mm
03:17 34.5 °F /  1.4 °C 33.8 °F /  1.0 °C 30 in /  1014.8 hPa Calm     97 % 0 in /  0.0 mm
03:22 34.7 °F /  1.5 °C 34 °F /  1.1 °C 30 in /  1014.8 hPa Calm     97 % 0 in /  0.0 mm
03:32 35.1 °F /  1.7 °C 34.3 °F /  1.3 °C 30 in /  1014.4 hPa Calm     97 % 0 in /  0.0 mm
03:37 34.9 °F /  1.6 °C 34.2 °F /  1.2 °C 30 in /  1014.4 hPa Calm     97 % 0 in /  0.0 mm
03:42 34.9 °F /  1.6 °C 34.2 °F /  1.2 °C 30 in /  1014.4 hPa Calm     97 % 0 in /  0.0 mm
03:47 34.5 °F /  1.4 °C 33.4 °F /  0.8 °C 30 in /  1014.4 hPa Calm     96 % 0 in /  0.0 mm
03:52 34.5 °F /  1.4 °C 33.8 °F /  1.0 °C 30 in /  1014.4 hPa Calm     97 % 0 in /  0.0 mm
03:57 34.5 °F /  1.4 °C 33.8 °F /  1.0 °C 30 in /  1014.4 hPa Calm     97 % 0 in /  0.0 mm
04:02 34.3 °F /  1.3 °C 33.6 °F /  0.9 °C 30 in /  1014.4 hPa Calm     97 % 0 in /  0.0 mm
04:07 33.6 °F /  0.9 °C 32.5 °F /  0.3 °C 30 in /  1014.4 hPa Calm   2 mph /  3.2 km/h 96 % 0 in /  0.0 mm
04:12 33.4 °F /  0.8 °C 32.4 °F /  0.2 °C 29.9 in /  1014.1 hPa Calm   2 mph /  3.2 km/h 96 % 0 in /  0.0 mm
04:17 34 °F /  1.1 °C 33.3 °F /  0.7 °C 29.9 in /  1014.1 hPa Calm   1 mph /  1.6 km/h 97 % 0 in /  0.0 mm
04:22 34 °F /  1.1 °C 33.3 °F /  0.7 °C 30 in /  1014.4 hPa Calm   1 mph /  1.6 km/h 97 % 0 in /  0.0 mm
04:32 33.8 °F /  1.0 °C 33.1 °F /  0.6 °C 30 in /  1014.4 hPa Calm     97 % 0 in /  0.0 mm
04:37 33.4 °F /  0.8 °C 32.4 °F /  0.2 °C 29.9 in /  1014.1 hPa Calm     96 % 0 in /  0.0 mm
04:42 33.6 °F /  0.9 °C 32.9 °F /  0.5 °C 29.9 in /  1014.1 hPa Calm     97 % 0 in /  0.0 mm
04:47 34 °F /  1.1 °C 33.3 °F /  0.7 °C 29.9 in /  1014.1 hPa Calm     97 % 0 in /  0.0 mm
04:52 34 °F /  1.1 °C 33.3 °F /  0.7 °C 29.9 in /  1014.1 hPa Calm     97 % 0 in /  0.0 mm
04:57 34 °F /  1.1 °C 33.3 °F /  0.7 °C 29.9 in /  1014.1 hPa Calm     97 % 0 in /  0.0 mm
05:02 34 °F /  1.1 °C 33.3 °F /  0.7 °C 29.9 in /  1013.8 hPa Calm     97 % 0 in /  0.0 mm
05:07 34 °F /  1.1 °C 33.3 °F /  0.7 °C 29.9 in /  1013.8 hPa Calm     97 % 0 in /  0.0 mm
05:12 33.4 °F /  0.8 °C 32.4 °F /  0.2 °C 29.9 in /  1013.8 hPa Calm     96 % 0 in /  0.0 mm
05:22 32.9 °F /  0.5 °C 31.8 °F /  -0.1 °C 29.9 in /  1013.8 hPa Calm     96 % 0 in /  0.0 mm
05:32 33.3 °F /  0.7 °C 32.5 °F /  0.3 °C 29.9 in /  1013.8 hPa Calm     97 % 0 in /  0.0 mm
05:37 33.1 °F /  0.6 °C 32.4 °F /  0.2 °C 29.9 in /  1013.8 hPa Calm     97 % 0 in /  0.0 mm
05:42 33.1 °F /  0.6 °C 32.4 °F /  0.2 °C 29.9 in /  1013.8 hPa Calm     97 % 0 in /  0.0 mm
05:52 33.6 °F /  0.9 °C 32.9 °F /  0.5 °C 29.9 in /  1013.8 hPa Calm     97 % 0 in /  0.0 mm
06:02 33.8 °F /  1.0 °C 33.1 °F /  0.6 °C 29.9 in /  1013.4 hPa Calm     97 % 0 in /  0.0 mm
06:07 33.6 °F /  0.9 °C 32.9 °F /  0.5 °C 29.9 in /  1013.4 hPa Calm     97 % 0 in /  0.0 mm
06:12 33.3 °F /  0.7 °C 32.5 °F /  0.3 °C 29.9 in /  1013.4 hPa Calm     97 % 0 in /  0.0 mm
06:17 33.1 °F /  0.6 °C 32.4 °F /  0.2 °C 29.9 in /  1013.4 hPa Calm     97 % 0 in /  0.0 mm
06:22 33.3 °F /  0.7 °C 32.5 °F /  0.3 °C 29.9 in /  1013.4 hPa Calm     97 % 0 in /  0.0 mm
06:32 33.1 °F /  0.6 °C 32.4 °F /  0.2 °C 29.9 in /  1013.4 hPa Calm     97 % 0 in /  0.0 mm
06:37 33.3 °F /  0.7 °C 32.5 °F /  0.3 °C 29.9 in /  1013.4 hPa Calm     97 % 0 in /  0.0 mm
06:42 33.4 °F /  0.8 °C 32.7 °F /  0.4 °C 29.9 in /  1013.4 hPa Calm     97 % 0 in /  0.0 mm
06:47 33.6 °F /  0.9 °C 32.9 °F /  0.5 °C 29.9 in /  1013.4 hPa Calm     97 % 0 in /  0.0 mm
06:52 33.6 °F /  0.9 °C 32.9 °F /  0.5 °C 29.9 in /  1013.4 hPa Calm     97 % 0 in /  0.0 mm
06:57 33.8 °F /  1.0 °C 33.1 °F /  0.6 °C 29.9 in /  1013.1 hPa Calm     97 % 0 in /  0.0 mm
07:02 34 °F /  1.1 °C 33.3 °F /  0.7 °C 29.9 in /  1013.4 hPa Calm     97 % 0 in /  0.0 mm
07:12 34.3 °F /  1.3 °C 33.6 °F /  0.9 °C 29.9 in /  1013.1 hPa Calm     97 % 0 in /  0.0 mm
07:22 34.5 °F /  1.4 °C 33.8 °F /  1.0 °C 29.9 in /  1013.4 hPa Calm     97 % 0 in /  0.0 mm
07:32 34.7 °F /  1.5 °C 34 °F /  1.1 °C 29.9 in /  1013.1 hPa Calm     97 % 0 in /  0.0 mm
07:42 36 °F /  2.2 °C 35.2 °F /  1.8 °C 29.9 in /  1013.1 hPa Calm     97 % 0 in /  0.0 mm
07:47 36.1 °F /  2.3 °C 35.4 °F /  1.9 °C 29.9 in /  1013.1 hPa Calm     97 % 0 in /  0.0 mm
07:52 36.9 °F /  2.7 °C 36.1 °F /  2.3 °C 29.9 in /  1013.1 hPa SE 1 mph /  1.6 km/h   97 % 0 in /  0.0 mm
07:57 37.2 °F /  2.9 °C 36.5 °F /  2.5 °C 29.9 in /  1013.1 hPa SSE 2 mph /  3.2 km/h 2 mph /  3.2 km/h 97 % 0 in /  0.0 mm
08:02 37.8 °F /  3.2 °C 37 °F /  2.8 °C 29.9 in /  1013.1 hPa Calm   2 mph /  3.2 km/h 97 % 0 in /  0.0 mm
08:07 37.9 °F /  3.3 °C 37.2 °F /  2.9 °C 29.9 in /  1013.1 hPa East 1 mph /  1.6 km/h 4 mph /  6.4 km/h 97 % 0 in /  0.0 mm
08:12 38.7 °F /  3.7 °C 37.9 °F /  3.3 °C 29.9 in /  1013.1 hPa Calm   4 mph /  6.4 km/h 97 % 0 in /  0.0 mm
08:17 38.7 °F /  3.7 °C 37.6 °F /  3.1 °C 29.9 in /  1013.1 hPa ESE 2 mph /  3.2 km/h 2 mph /  3.2 km/h 96 % 0 in /  0.0 mm
08:22 39 °F /  3.9 °C 37.9 °F /  3.3 °C 29.9 in /  1013.1 hPa Calm   2 mph /  3.2 km/h 96 % 0 in /  0.0 mm
08:32 38.8 °F /  3.8 °C 37.6 °F /  3.1 °C 29.9 in /  1013.1 hPa SE 1 mph /  1.6 km/h 4 mph /  6.4 km/h 95 % 0 in /  0.0 mm
08:42 39 °F /  3.9 °C 37.8 °F /  3.2 °C 29.9 in /  1013.1 hPa SE 2 mph /  3.2 km/h 3 mph /  4.8 km/h 95 % 0 in /  0.0 mm
08:52 40.1 °F /  4.5 °C 38.8 °F /  3.8 °C 29.9 in /  1012.8 hPa Calm   5 mph /  8.0 km/h 95 % 0 in /  0.0 mm
09:02 40.8 °F /  4.9 °C 39 °F /  3.9 °C 29.9 in /  1012.8 hPa SSE 2 mph /  3.2 km/h 4 mph /  6.4 km/h 93 % 0 in /  0.0 mm
09:07 41.4 °F /  5.2 °C 39.6 °F /  4.2 °C 29.9 in /  1012.8 hPa ESE 3 mph /  4.8 km/h 4 mph /  6.4 km/h 93 % 0 in /  0.0 mm
09:12 41.9 °F /  5.5 °C 39.7 °F /  4.3 °C 29.9 in /  1012.8 hPa SSW 2 mph /  3.2 km/h 4 mph /  6.4 km/h 92 % 0 in /  0.0 mm
09:17 42.3 °F /  5.7 °C 40.1 °F /  4.5 °C 29.9 in /  1012.8 hPa SSE 3 mph /  4.8 km/h 5 mph /  8.0 km/h 92 % 0 in /  0.0 mm
09:22 42.3 °F /  5.7 °C 39.6 °F /  4.2 °C 29.9 in /  1013.1 hPa South 2 mph /  3.2 km/h 5 mph /  8.0 km/h 90 % 0 in /  0.0 mm
09:32 43 °F /  6.1 °C 39.9 °F /  4.4 °C 29.9 in /  1012.8 hPa East 6 mph /  9.7 km/h 6 mph /  9.7 km/h 89 % 0 in /  0.0 mm
09:37 43.2 °F /  6.2 °C 39.9 °F /  4.4 °C 29.9 in /  1012.8 hPa SE 2 mph /  3.2 km/h 6 mph /  9.7 km/h 88 % 0 in /  0.0 mm
09:42 43.5 °F /  6.4 °C 40.5 °F /  4.7 °C 29.9 in /  1012.8 hPa SE 2 mph /  3.2 km/h 6 mph /  9.7 km/h 89 % 0 in /  0.0 mm
09:47 43.9 °F /  6.6 °C 40.3 °F /  4.6 °C 29.9 in /  1012.8 hPa SE 2 mph /  3.2 km/h 7 mph /  11.3 km/h 87 % 0 in /  0.0 mm
09:52 44.8 °F /  7.1 °C 41.7 °F /  5.4 °C 29.9 in /  1012.8 hPa ESE 5 mph /  8.0 km/h 7 mph /  11.3 km/h 89 % 0 in /  0.0 mm
10:02 45 °F /  7.2 °C 41 °F /  5.0 °C 29.9 in /  1012.8 hPa SSE 1 mph /  1.6 km/h 7 mph /  11.3 km/h 86 % 0 in /  0.0 mm
10:07 45.1 °F /  7.3 °C 40.6 °F /  4.8 °C 29.9 in /  1012.8 hPa South 3 mph /  4.8 km/h 8 mph /  12.9 km/h 84 % 0 in /  0.0 mm
10:17 45.3 °F /  7.4 °C 40.8 °F /  4.9 °C 29.9 in /  1012.8 hPa Calm   8 mph /  12.9 km/h 84 % 0 in /  0.0 mm
10:22 45.7 °F /  7.6 °C 41.7 °F /  5.4 °C 29.9 in /  1012.8 hPa SE 2 mph /  3.2 km/h 8 mph /  12.9 km/h 86 % 0 in /  0.0 mm
10:32 46.2 °F /  7.9 °C 41.9 °F /  5.5 °C 29.9 in /  1012.8 hPa SSE 3 mph /  4.8 km/h 8 mph /  12.9 km/h 85 % 0 in /  0.0 mm
10:42 46.6 °F /  8.1 °C 40.8 °F /  4.9 °C 29.9 in /  1012.4 hPa East 4 mph /  6.4 km/h 9 mph /  14.5 km/h 80 % 0 in /  0.0 mm
10:47 46.8 °F /  8.2 °C 41.5 °F /  5.3 °C 29.9 in /  1012.4 hPa SE 6 mph /  9.7 km/h 9 mph /  14.5 km/h 82 % 0 in /  0.0 mm
10:52 46.4 °F /  8.0 °C 40.8 °F /  4.9 °C 29.9 in /  1012.4 hPa SE 3 mph /  4.8 km/h 9 mph /  14.5 km/h 81 % 0 in /  0.0 mm
10:57 46.6 °F /  8.1 °C 42.1 °F /  5.6 °C 29.9 in /  1012.4 hPa South 1 mph /  1.6 km/h 10 mph /  16.1 km/h 84 % 0 in /  0.0 mm
11:02 47.1 °F /  8.4 °C 41.5 °F /  5.3 °C 29.9 in /  1012.4 hPa ESE 3 mph /  4.8 km/h 10 mph /  16.1 km/h 81 % 0 in /  0.0 mm
11:07 46.8 °F /  8.2 °C 41 °F /  5.0 °C 29.9 in /  1012.4 hPa SSE 3 mph /  4.8 km/h 9 mph /  14.5 km/h 80 % 0 in /  0.0 mm
11:12 46.8 °F /  8.2 °C 41 °F /  5.0 °C 29.9 in /  1012.4 hPa SSE 2 mph /  3.2 km/h 9 mph /  14.5 km/h 80 % 0 in /  0.0 mm
11:17 47.1 °F /  8.4 °C 41.4 °F /  5.2 °C 29.9 in /  1012.1 hPa SSW 4 mph /  6.4 km/h 11 mph /  17.7 km/h 80 % 0 in /  0.0 mm
11:22 47.7 °F /  8.7 °C 42.1 °F /  5.6 °C 29.9 in /  1012.1 hPa SSE 5 mph /  8.0 km/h 11 mph /  17.7 km/h 81 % 0 in /  0.0 mm
11:32 47.7 °F /  8.7 °C 41.7 °F /  5.4 °C 29.9 in /  1012.1 hPa SSE 3 mph /  4.8 km/h 10 mph /  16.1 km/h 80 % 0 in /  0.0 mm
11:42 48 °F /  8.9 °C 42.4 °F /  5.8 °C 29.9 in /  1012.1 hPa SE 3 mph /  4.8 km/h 9 mph /  14.5 km/h 81 % 0 in /  0.0 mm
11:52 47.1 °F /  8.4 °C 41.5 °F /  5.3 °C 29.9 in /  1012.1 hPa SE 2 mph /  3.2 km/h 10 mph /  16.1 km/h 81 % 0 in /  0.0 mm
12:02 48 °F /  8.9 °C 43.2 °F /  6.2 °C 29.9 in /  1012.1 hPa South 2 mph /  3.2 km/h 14 mph /  22.5 km/h 83 % 0 in /  0.0 mm
12:07 48.6 °F /  9.2 °C 43.3 °F /  6.3 °C 29.9 in /  1011.7 hPa SE 4 mph /  6.4 km/h 12 mph /  19.3 km/h 82 % 0 in /  0.0 mm
12:12 49.1 °F /  9.5 °C 42.6 °F /  5.9 °C 29.9 in /  1011.7 hPa SSE 2 mph /  3.2 km/h 12 mph /  19.3 km/h 78 % 0 in /  0.0 mm
12:17 48.9 °F /  9.4 °C 42.1 °F /  5.6 °C 29.9 in /  1011.7 hPa SW 1 mph /  1.6 km/h 8 mph /  12.9 km/h 77 % 0 in /  0.0 mm
12:22 49.5 °F /  9.7 °C 42.8 °F /  6.0 °C 29.9 in /  1011.4 hPa ESE 3 mph /  4.8 km/h 12 mph /  19.3 km/h 78 % 0 in /  0.0 mm
12:27 50 °F /  10.0 °C 43.2 °F /  6.2 °C 29.9 in /  1011.4 hPa SE 5 mph /  8.0 km/h 12 mph /  19.3 km/h 77 % 0 in /  0.0 mm
12:32 49.8 °F /  9.9 °C 42.3 °F /  5.7 °C 29.9 in /  1011.4 hPa East 4 mph /  6.4 km/h 12 mph /  19.3 km/h 75 % 0 in /  0.0 mm
12:37 49.6 °F /  9.8 °C 42.1 °F /  5.6 °C 29.9 in /  1011.4 hPa ESE 4 mph /  6.4 km/h 12 mph /  19.3 km/h 75 % 0 in /  0.0 mm
12:42 49.6 °F /  9.8 °C 41.7 °F /  5.4 °C 29.9 in /  1011.4 hPa SE 2 mph /  3.2 km/h 11 mph /  17.7 km/h 74 % 0 in /  0.0 mm
12:47 49.8 °F /  9.9 °C 41.9 °F /  5.5 °C 29.9 in /  1011.4 hPa SE 1 mph /  1.6 km/h 11 mph /  17.7 km/h 74 % 0 in /  0.0 mm
12:52 49.8 °F /  9.9 °C 41.5 °F /  5.3 °C 29.9 in /  1011.1 hPa East 3 mph /  4.8 km/h 11 mph /  17.7 km/h 73 % 0 in /  0.0 mm
12:57 49.6 °F /  9.8 °C 40.3 °F /  4.6 °C 29.9 in /  1011.1 hPa East 3 mph /  4.8 km/h 12 mph /  19.3 km/h 70 % 0 in /  0.0 mm
13:02 50.2 °F /  10.1 °C 40.8 °F /  4.9 °C 29.9 in /  1011.1 hPa SSE 4 mph /  6.4 km/h 12 mph /  19.3 km/h 70 % 0 in /  0.0 mm
13:12 51.3 °F /  10.7 °C 41 °F /  5.0 °C 29.9 in /  1011.1 hPa Calm   12 mph /  19.3 km/h 68 % 0 in /  0.0 mm
13:17 51.4 °F /  10.8 °C 40.5 °F /  4.7 °C 29.9 in /  1011.1 hPa SE 5 mph /  8.0 km/h 11 mph /  17.7 km/h 66 % 0 in /  0.0 mm
13:22 51.6 °F /  10.9 °C 40.3 °F /  4.6 °C 29.9 in /  1011.1 hPa SSE 4 mph /  6.4 km/h 11 mph /  17.7 km/h 65 % 0 in /  0.0 mm
13:27 52.9 °F /  11.6 °C 42.6 °F /  5.9 °C 29.8 in /  1010.7 hPa SSE 3 mph /  4.8 km/h 11 mph /  17.7 km/h 68 % 0 in /  0.0 mm
13:37 52.5 °F /  11.4 °C 40.3 °F /  4.6 °C 29.8 in /  1010.7 hPa SSE 6 mph /  9.7 km/h 13 mph /  20.9 km/h 63 % 0 in /  0.0 mm
13:42 52.9 °F /  11.6 °C 40.6 °F /  4.8 °C 29.8 in /  1010.4 hPa South 8 mph /  12.9 km/h 13 mph /  20.9 km/h 63 % 0 in /  0.0 mm
13:52 52.9 °F /  11.6 °C 38.1 °F /  3.4 °C 29.8 in /  1010.4 hPa SSE 4 mph /  6.4 km/h 15 mph /  24.1 km/h 57 % 0 in /  0.0 mm
13:57 53.1 °F /  11.7 °C 39.9 °F /  4.4 °C 29.8 in /  1010.4 hPa SSE 6 mph /  9.7 km/h 15 mph /  24.1 km/h 61 % 0 in /  0.0 mm
14:02 53.2 °F /  11.8 °C 38.8 °F /  3.8 °C 29.8 in /  1010.4 hPa ESE 6 mph /  9.7 km/h 15 mph /  24.1 km/h 58 % 0 in /  0.0 mm
14:07 53.4 °F /  11.9 °C 39.4 °F /  4.1 °C 29.8 in /  1010.4 hPa SSW 4 mph /  6.4 km/h 13 mph /  20.9 km/h 59 % 0 in /  0.0 mm
14:12 53.8 °F /  12.1 °C 39.4 °F /  4.1 °C 29.8 in /  1010.4 hPa SSE 9 mph /  14.5 km/h 13 mph /  20.9 km/h 58 % 0 in /  0.0 mm
14:17 54 °F /  12.2 °C 38.1 °F /  3.4 °C 29.8 in /  1010.4 hPa SW 9 mph /  14.5 km/h 10 mph /  16.1 km/h 55 % 0 in /  0.0 mm
14:22 53.2 °F /  11.8 °C 37.4 °F /  3.0 °C 29.8 in /  1010.4 hPa SE 5 mph /  8.0 km/h 10 mph /  16.1 km/h 55 % 0 in /  0.0 mm
14:32 53.4 °F /  11.9 °C 37.6 °F /  3.1 °C 29.8 in /  1010.0 hPa SSE 5 mph /  8.0 km/h 11 mph /  17.7 km/h 55 % 0 in /  0.0 mm
14:37 53.8 °F /  12.1 °C 39.7 °F /  4.3 °C 29.8 in /  1010.0 hPa South 2 mph /  3.2 km/h 10 mph /  16.1 km/h 59 % 0 in /  0.0 mm
14:42 54.3 °F /  12.4 °C 39.4 °F /  4.1 °C 29.8 in /  1010.0 hPa SSW 8 mph /  12.9 km/h 10 mph /  16.1 km/h 57 % 0 in /  0.0 mm
14:52 53.4 °F /  11.9 °C 38.1 °F /  3.4 °C 29.8 in /  1010.0 hPa SE 2 mph /  3.2 km/h 11 mph /  17.7 km/h 56 % 0 in /  0.0 mm
14:57 54.1 °F /  12.3 °C 39.7 °F /  4.3 °C 29.8 in /  1009.7 hPa SSW 3 mph /  4.8 km/h 10 mph /  16.1 km/h 58 % 0 in /  0.0 mm
15:02 54 °F /  12.2 °C 38.1 °F /  3.4 °C 29.8 in /  1009.7 hPa ESE 3 mph /  4.8 km/h 10 mph /  16.1 km/h 55 % 0 in /  0.0 mm
15:12 54.5 °F /  12.5 °C 40.1 °F /  4.5 °C 29.8 in /  1009.7 hPa SSE 5 mph /  8.0 km/h 10 mph /  16.1 km/h 58 % 0 in /  0.0 mm
15:17 54.9 °F /  12.7 °C 39.9 °F /  4.4 °C 29.8 in /  1009.7 hPa SSE 6 mph /  9.7 km/h 10 mph /  16.1 km/h 57 % 0 in /  0.0 mm
15:22 54.5 °F /  12.5 °C 38.7 °F /  3.7 °C 29.8 in /  1009.4 hPa SE 6 mph /  9.7 km/h 10 mph /  16.1 km/h 55 % 0 in /  0.0 mm
15:32 54.1 °F /  12.3 °C 40.1 °F /  4.5 °C 29.8 in /  1009.4 hPa SSE 2 mph /  3.2 km/h 10 mph /  16.1 km/h 59 % 0 in /  0.0 mm
15:42 54.7 °F /  12.6 °C 41 °F /  5.0 °C 29.8 in /  1009.4 hPa SSW 5 mph /  8.0 km/h 11 mph /  17.7 km/h 60 % 0 in /  0.0 mm
15:47 55 °F /  12.8 °C 40.5 °F /  4.7 °C 29.8 in /  1009.4 hPa East 2 mph /  3.2 km/h 9 mph /  14.5 km/h 58 % 0 in /  0.0 mm
15:52 55 °F /  12.8 °C 40.5 °F /  4.7 °C 29.8 in /  1009.4 hPa SE 7 mph /  11.3 km/h 9 mph /  14.5 km/h 58 % 0 in /  0.0 mm
16:02 54 °F /  12.2 °C 38.7 °F /  3.7 °C 29.8 in /  1009.4 hPa ESE 6 mph /  9.7 km/h 8 mph /  12.9 km/h 56 % 0 in /  0.0 mm
16:12 54.3 °F /  12.4 °C 39.9 °F /  4.4 °C 29.8 in /  1009.4 hPa South 2 mph /  3.2 km/h 8 mph /  12.9 km/h 58 % 0 in /  0.0 mm
16:17 54.7 °F /  12.6 °C 40.6 °F /  4.8 °C 29.8 in /  1009.4 hPa ESE 4 mph /  6.4 km/h 9 mph /  14.5 km/h 59 % 0 in /  0.0 mm
16:22 54.1 °F /  12.3 °C 41 °F /  5.0 °C 29.8 in /  1009.4 hPa SE 7 mph /  11.3 km/h 9 mph /  14.5 km/h 61 % 0 in /  0.0 mm
16:32 54 °F /  12.2 °C 42.1 °F /  5.6 °C 29.8 in /  1009.0 hPa SE 4 mph /  6.4 km/h 13 mph /  20.9 km/h 64 % 0 in /  0.0 mm
16:42 53.6 °F /  12.0 °C 42.1 °F /  5.6 °C 29.8 in /  1009.0 hPa East 5 mph /  8.0 km/h 12 mph /  19.3 km/h 65 % 0 in /  0.0 mm
16:47 53.4 °F /  11.9 °C 41.5 °F /  5.3 °C 29.8 in /  1009.0 hPa SE 4 mph /  6.4 km/h 10 mph /  16.1 km/h 64 % 0 in /  0.0 mm
16:52 53.2 °F /  11.8 °C 41.7 °F /  5.4 °C 29.8 in /  1009.0 hPa ESE 3 mph /  4.8 km/h 10 mph /  16.1 km/h 65 % 0 in /  0.0 mm
16:57 53.1 °F /  11.7 °C 40.8 °F /  4.9 °C 29.8 in /  1008.7 hPa ESE 8 mph /  12.9 km/h 11 mph /  17.7 km/h 63 % 0 in /  0.0 mm
17:02 53.1 °F /  11.7 °C 40.8 °F /  4.9 °C 29.8 in /  1008.7 hPa East 8 mph /  12.9 km/h 11 mph /  17.7 km/h 63 % 0 in /  0.0 mm
17:12 53.2 °F /  11.8 °C 41 °F /  5.0 °C 29.8 in /  1008.7 hPa East 3 mph /  4.8 km/h 11 mph /  17.7 km/h 63 % 0 in /  0.0 mm
17:17 53.1 °F /  11.7 °C 40.8 °F /  4.9 °C 29.8 in /  1008.7 hPa East 9 mph /  14.5 km/h 10 mph /  16.1 km/h 63 % 0 in /  0.0 mm
17:22 53.1 °F /  11.7 °C 41.5 °F /  5.3 °C 29.8 in /  1008.7 hPa SE 7 mph /  11.3 km/h 10 mph /  16.1 km/h 65 % 0 in /  0.0 mm
17:27 53.6 °F /  12.0 °C 41.4 °F /  5.2 °C 29.8 in /  1008.7 hPa East 4 mph /  6.4 km/h 10 mph /  16.1 km/h 63 % 0 in /  0.0 mm
17:32 54 °F /  12.2 °C 42.1 °F /  5.6 °C 29.8 in /  1008.7 hPa ESE 4 mph /  6.4 km/h 10 mph /  16.1 km/h 64 % 0 in /  0.0 mm
17:42 53.4 °F /  11.9 °C 40.6 °F /  4.8 °C 29.8 in /  1008.4 hPa East 11 mph /  17.7 km/h 11 mph /  17.7 km/h 62 % 0 in /  0.0 mm
17:47 53.2 °F /  11.8 °C 40.6 °F /  4.8 °C 29.8 in /  1008.4 hPa ESE 10 mph /  16.1 km/h 13 mph /  20.9 km/h 62 % 0 in /  0.0 mm
17:52 53.2 °F /  11.8 °C 40.6 °F /  4.8 °C 29.8 in /  1008.4 hPa ESE 3 mph /  4.8 km/h 13 mph /  20.9 km/h 62 % 0 in /  0.0 mm
17:57 53.1 °F /  11.7 °C 40.5 °F /  4.7 °C 29.8 in /  1008.7 hPa SSE 4 mph /  6.4 km/h 13 mph /  20.9 km/h 62 % 0 in /  0.0 mm
18:02 52.7 °F /  11.5 °C 40.5 °F /  4.7 °C 29.8 in /  1008.7 hPa East 11 mph /  17.7 km/h 13 mph /  20.9 km/h 63 % 0 in /  0.0 mm
18:12 52.2 °F /  11.2 °C 40.3 °F /  4.6 °C 29.8 in /  1008.7 hPa East 4 mph /  6.4 km/h 11 mph /  17.7 km/h 64 % 0 in /  0.0 mm
18:17 51.8 °F /  11.0 °C 40.8 °F /  4.9 °C 29.8 in /  1008.7 hPa NE 3 mph /  4.8 km/h 11 mph /  17.7 km/h 66 % 0 in /  0.0 mm
18:22 51.6 °F /  10.9 °C 40.6 °F /  4.8 °C 29.8 in /  1008.7 hPa ESE 2 mph /  3.2 km/h 6 mph /  9.7 km/h 66 % 0 in /  0.0 mm
18:27 51.4 °F /  10.8 °C 40.5 °F /  4.7 °C 29.8 in /  1008.7 hPa East 3 mph /  4.8 km/h 6 mph /  9.7 km/h 66 % 0 in /  0.0 mm
18:32 51.6 °F /  10.9 °C 40.6 °F /  4.8 °C 29.8 in /  1008.4 hPa East 4 mph /  6.4 km/h 6 mph /  9.7 km/h 66 % 0 in /  0.0 mm
18:37 51.6 °F /  10.9 °C 40.3 °F /  4.6 °C 29.8 in /  1008.4 hPa ENE 4 mph /  6.4 km/h 6 mph /  9.7 km/h 65 % 0 in /  0.0 mm
18:42 51.4 °F /  10.8 °C 40.1 °F /  4.5 °C 29.8 in /  1008.4 hPa ESE 4 mph /  6.4 km/h 6 mph /  9.7 km/h 65 % 0 in /  0.0 mm
18:52 51.4 °F /  10.8 °C 39.2 °F /  4.0 °C 29.8 in /  1008.4 hPa East 5 mph /  8.0 km/h 8 mph /  12.9 km/h 63 % 0 in /  0.0 mm
18:57 51.3 °F /  10.7 °C 39.6 °F /  4.2 °C 29.8 in /  1008.4 hPa East 6 mph /  9.7 km/h 9 mph /  14.5 km/h 64 % 0 in /  0.0 mm
19:02 51.1 °F /  10.6 °C 39.4 °F /  4.1 °C 29.8 in /  1008.4 hPa East 6 mph /  9.7 km/h 9 mph /  14.5 km/h 64 % 0 in /  0.0 mm
19:12 50.5 °F /  10.3 °C 38.8 °F /  3.8 °C 29.8 in /  1008.4 hPa East 5 mph /  8.0 km/h 9 mph /  14.5 km/h 64 % 0 in /  0.0 mm
19:17 50.5 °F /  10.3 °C 38.8 °F /  3.8 °C 29.8 in /  1008.4 hPa East 3 mph /  4.8 km/h 8 mph /  12.9 km/h 64 % 0 in /  0.0 mm
19:22 50.4 °F /  10.2 °C 38.3 °F /  3.5 °C 29.8 in /  1008.4 hPa East 2 mph /  3.2 km/h 8 mph /  12.9 km/h 63 % 0 in /  0.0 mm
19:27 50 °F /  10.0 °C 38.7 °F /  3.7 °C 29.8 in /  1008.4 hPa ESE 1 mph /  1.6 km/h 7 mph /  11.3 km/h 65 % 0 in /  0.0 mm
19:32 49.5 °F /  9.7 °C 39 °F /  3.9 °C 29.8 in /  1008.4 hPa East 1 mph /  1.6 km/h 7 mph /  11.3 km/h 67 % 0 in /  0.0 mm
19:37 49.1 °F /  9.5 °C 38.7 °F /  3.7 °C 29.8 in /  1008.4 hPa ESE 1 mph /  1.6 km/h 3 mph /  4.8 km/h 67 % 0 in /  0.0 mm
19:42 48.9 °F /  9.4 °C 38.5 °F /  3.6 °C 29.8 in /  1008.4 hPa East 2 mph /  3.2 km/h 3 mph /  4.8 km/h 67 % 0 in /  0.0 mm
19:52 48.7 °F /  9.3 °C 37.9 °F /  3.3 °C 29.8 in /  1008.4 hPa East 1 mph /  1.6 km/h 3 mph /  4.8 km/h 66 % 0 in /  0.0 mm
19:57 48.7 °F /  9.3 °C 37.9 °F /  3.3 °C 29.8 in /  1008.4 hPa East 2 mph /  3.2 km/h 3 mph /  4.8 km/h 66 % 0 in /  0.0 mm
20:02 48.7 °F /  9.3 °C 37.9 °F /  3.3 °C 29.8 in /  1008.4 hPa East 2 mph /  3.2 km/h 3 mph /  4.8 km/h 66 % 0 in /  0.0 mm
20:07 48.6 °F /  9.2 °C 37.8 °F /  3.2 °C 29.8 in /  1008.4 hPa East 1 mph /  1.6 km/h 3 mph /  4.8 km/h 66 % 0 in /  0.0 mm
20:12 48.4 °F /  9.1 °C 37.6 °F /  3.1 °C 29.8 in /  1008.4 hPa Calm   3 mph /  4.8 km/h 66 % 0 in /  0.0 mm
20:17 48 °F /  8.9 °C 37.6 °F /  3.1 °C 29.8 in /  1008.7 hPa Calm   3 mph /  4.8 km/h 67 % 0 in /  0.0 mm
20:22 47.7 °F /  8.7 °C 37.6 °F /  3.1 °C 29.8 in /  1008.7 hPa Calm   3 mph /  4.8 km/h 68 % 0 in /  0.0 mm
20:32 46.6 °F /  8.1 °C 37.8 °F /  3.2 °C 29.8 in /  1008.7 hPa Calm   2 mph /  3.2 km/h 71 % 0 in /  0.0 mm
20:37 46.2 °F /  7.9 °C 37.8 °F /  3.2 °C 29.8 in /  1008.7 hPa Calm     72 % 0 in /  0.0 mm
20:42 46.6 °F /  8.1 °C 38.1 °F /  3.4 °C 29.8 in /  1009.0 hPa Calm     72 % 0 in /  0.0 mm
20:47 46.6 °F /  8.1 °C 37.8 °F /  3.2 °C 29.8 in /  1009.0 hPa Calm   4 mph /  6.4 km/h 71 % 0 in /  0.0 mm
20:52 46.6 °F /  8.1 °C 37.8 °F /  3.2 °C 29.8 in /  1009.0 hPa Calm   4 mph /  6.4 km/h 71 % 0 in /  0.0 mm
20:57 46.2 °F /  7.9 °C 37.8 °F /  3.2 °C 29.8 in /  1009.0 hPa Calm   2 mph /  3.2 km/h 72 % 0 in /  0.0 mm
21:02 46 °F /  7.8 °C 37.9 °F /  3.3 °C 29.8 in /  1008.7 hPa Calm   2 mph /  3.2 km/h 73 % 0 in /  0.0 mm
21:07 46 °F /  7.8 °C 38.5 °F /  3.6 °C 29.8 in /  1008.7 hPa Calm   1 mph /  1.6 km/h 75 % 0 in /  0.0 mm
21:12 46 °F /  7.8 °C 38.3 °F /  3.5 °C 29.8 in /  1008.7 hPa Calm   1 mph /  1.6 km/h 74 % 0 in /  0.0 mm
21:17 45.9 °F /  7.7 °C 38.3 °F /  3.5 °C 29.8 in /  1009.0 hPa Calm   2 mph /  3.2 km/h 75 % 0 in /  0.0 mm
21:22 45.7 °F /  7.6 °C 38.5 °F /  3.6 °C 29.8 in /  1009.0 hPa Calm   2 mph /  3.2 km/h 76 % 0 in /  0.0 mm
21:32 45.9 °F /  7.7 °C 39 °F /  3.9 °C 29.8 in /  1009.0 hPa Calm   1 mph /  1.6 km/h 77 % 0 in /  0.0 mm
21:42 46 °F /  7.8 °C 38.8 °F /  3.8 °C 29.8 in /  1009.4 hPa Calm   1 mph /  1.6 km/h 76 % 0 in /  0.0 mm
21:47 46 °F /  7.8 °C 39.2 °F /  4.0 °C 29.8 in /  1009.4 hPa Calm   1 mph /  1.6 km/h 77 % 0 in /  0.0 mm
21:52 46 °F /  7.8 °C 39.2 °F /  4.0 °C 29.8 in /  1009.4 hPa SW 2 mph /  3.2 km/h 2 mph /  3.2 km/h 77 % 0 in /  0.0 mm
21:57 46.2 °F /  7.9 °C 39.4 °F /  4.1 °C 29.8 in /  1009.4 hPa South 1 mph /  1.6 km/h 4 mph /  6.4 km/h 77 % 0 in /  0.0 mm
22:07 46.2 °F /  7.9 °C 40.1 °F /  4.5 °C 29.8 in /  1009.4 hPa SSW 1 mph /  1.6 km/h 4 mph /  6.4 km/h 79 % 0 in /  0.0 mm
22:12 46 °F /  7.8 °C 40.3 °F /  4.6 °C 29.8 in /  1009.4 hPa ESE 1 mph /  1.6 km/h 4 mph /  6.4 km/h 80 % 0 in /  0.0 mm
22:17 45.9 °F /  7.7 °C 40.1 °F /  4.5 °C 29.8 in /  1009.4 hPa Calm   4 mph /  6.4 km/h 80 % 0 in /  0.0 mm
22:22 45.9 °F /  7.7 °C 39.7 °F /  4.3 °C 29.8 in /  1009.4 hPa SE 1 mph /  1.6 km/h 4 mph /  6.4 km/h 79 % 0 in /  0.0 mm
22:32 46 °F /  7.8 °C 39.9 °F /  4.4 °C 29.8 in /  1009.4 hPa WSW 6 mph /  9.7 km/h 6 mph /  9.7 km/h 79 % 0 in /  0.0 mm
22:37 46.4 °F /  8.0 °C 39.9 °F /  4.4 °C 29.8 in /  1009.4 hPa SSE 4 mph /  6.4 km/h 7 mph /  11.3 km/h 78 % 0 in /  0.0 mm
22:42 46.6 °F /  8.1 °C 40.1 °F /  4.5 °C 29.8 in /  1009.4 hPa SSW 4 mph /  6.4 km/h 7 mph /  11.3 km/h 78 % 0 in /  0.0 mm
22:52 46.2 °F /  7.9 °C 40.5 °F /  4.7 °C 29.8 in /  1009.4 hPa SW 2 mph /  3.2 km/h 7 mph /  11.3 km/h 80 % 0 in /  0.0 mm
22:57 45.9 °F /  7.7 °C 40.3 °F /  4.6 °C 29.8 in /  1009.4 hPa SSW 2 mph /  3.2 km/h 5 mph /  8.0 km/h 81 % 0 in /  0.0 mm
23:02 45.5 °F /  7.5 °C 40.1 °F /  4.5 °C 29.8 in /  1009.4 hPa SSW 1 mph /  1.6 km/h 5 mph /  8.0 km/h 81 % 0 in /  0.0 mm
23:07 45.1 °F /  7.3 °C 39.9 °F /  4.4 °C 29.8 in /  1009.4 hPa SSW 2 mph /  3.2 km/h 4 mph /  6.4 km/h 82 % 0 in /  0.0 mm
23:12 44.8 °F /  7.1 °C 39.6 °F /  4.2 °C 29.8 in /  1009.7 hPa SSW 1 mph /  1.6 km/h 4 mph /  6.4 km/h 82 % 0 in /  0.0 mm
23:17 44.2 °F /  6.8 °C 39.4 °F /  4.1 °C 29.8 in /  1009.4 hPa Calm   4 mph /  6.4 km/h 83 % 0 in /  0.0 mm
23:22 44.2 °F /  6.8 °C 39.7 °F /  4.3 °C 29.8 in /  1009.4 hPa SSW 3 mph /  4.8 km/h 4 mph /  6.4 km/h 84 % 0 in /  0.0 mm
23:32 44.4 °F /  6.9 °C 39.6 °F /  4.2 °C 29.8 in /  1009.4 hPa Calm   4 mph /  6.4 km/h 83 % 0 in /  0.0 mm
23:42 43.7 °F /  6.5 °C 39.6 °F /  4.2 °C 29.8 in /  1009.7 hPa Calm   3 mph /  4.8 km/h 85 % 0 in /  0.0 mm
23:47 43.5 °F /  6.4 °C 39.6 °F /  4.2 °C 29.8 in /  1009.4 hPa Calm   1 mph /  1.6 km/h 86 % 0 in /  0.0 mm
23:52 43.7 °F /  6.5 °C 39.7 °F /  4.3 °C 29.8 in /  1009.4 hPa Calm   1 mph /  1.6 km/h 86 % 0 in /  0.0 mm
23:57 43.7 °F /  6.5 °C 40.1 °F /  4.5 °C 29.8 in /  1009.4 hPa Calm   1 mph /  1.6 km/h 87 % 0 in /  0.0 mm
Meteo18
Compliments of Weather Underground - 4 mb

Script developed by  Jim McMurry - jmcmurry@mwt.net Adapted for the template by  Wim van der Kuil - Leuven-Template.eu

You find our weather info also at:

European Weather Network

Weather Underground

Equipment we use:

Weather-station
Davis Vue

Weather-program
Meteohub

Weather-server
Raspberry PI 2 B+

Provider
1 and 1

Davis Vue

Meteohub

Raspberry PI 2 B+

1 and 1